createdAt,value
2023-02-19T00:01:48.346Z,12.92
2023-02-19T00:04:19.494Z,12.94
2023-02-19T00:06:49.903Z,12.93
2023-02-19T00:09:22.058Z,12.92
2023-02-19T00:11:49.063Z,12.87
2023-02-19T00:14:18.737Z,12.89
2023-02-19T00:16:45.780Z,12.88
2023-02-19T00:19:16.204Z,12.90
2023-02-19T00:21:43.180Z,12.85
2023-02-19T00:24:12.465Z,12.89
2023-02-19T00:26:44.922Z,12.91
2023-02-19T00:29:14.521Z,12.88
2023-02-19T00:31:41.910Z,12.89
2023-02-19T00:34:10.003Z,12.86
2023-02-19T00:36:39.442Z,12.86
2023-02-19T00:39:07.953Z,12.78
2023-02-19T00:41:34.959Z,12.70
2023-02-19T00:44:05.132Z,12.67
2023-02-19T00:46:37.414Z,12.62
2023-02-19T00:49:06.094Z,12.60
2023-02-19T00:51:36.215Z,12.55
2023-02-19T00:54:04.279Z,12.64
2023-02-19T00:56:31.430Z,12.58
2023-02-19T00:58:58.317Z,12.52
2023-02-19T01:01:25.310Z,12.58
2023-02-19T01:03:56.504Z,12.46
2023-02-19T01:06:26.742Z,12.51
2023-02-19T01:08:53.542Z,12.52
2023-02-19T01:11:20.525Z,12.48
2023-02-19T01:13:47.442Z,12.33
2023-02-19T01:16:19.639Z,12.41
2023-02-19T01:18:47.907Z,12.39
2023-02-19T01:21:17.447Z,12.42
2023-02-19T01:23:44.433Z,12.40
2023-02-19T01:26:17.171Z,12.42
2023-02-19T01:28:44.581Z,12.41
2023-02-19T01:31:14.787Z,12.43
2023-02-19T01:33:46.948Z,12.39
2023-02-19T01:36:14.422Z,12.38
2023-02-19T01:38:41.901Z,12.32
2023-02-19T01:41:11.917Z,12.26
2023-02-19T01:44:18.466Z,12.29
2023-02-19T01:46:46.471Z,12.21
2023-02-19T01:49:25.998Z,12.16
2023-02-19T01:52:02.247Z,12.14
2023-02-19T01:54:34.742Z,12.09
2023-02-19T01:57:07.446Z,12.11
2023-02-19T01:59:34.755Z,11.98
2023-02-19T02:02:01.822Z,12.01
2023-02-19T02:04:33.272Z,11.76
2023-02-19T02:07:03.317Z,11.78
2023-02-19T02:09:59.993Z,11.60
2023-02-19T02:12:26.706Z,11.52
2023-02-19T02:14:53.526Z,11.52
2023-02-19T02:17:40.100Z,11.46
2023-02-19T02:20:15.713Z,11.43
2023-02-19T02:22:48.479Z,11.35
2023-02-19T02:25:16.949Z,11.38
2023-02-19T02:28:22.336Z,11.41
2023-02-19T02:31:12.062Z,11.41
2023-02-19T02:34:08.087Z,11.39
2023-02-19T02:36:40.339Z,11.43
2023-02-19T02:39:12.384Z,11.40
2023-02-19T02:41:45.057Z,11.46
2023-02-19T02:44:12.913Z,11.46
2023-02-19T02:46:44.980Z,11.43
2023-02-19T02:49:20.219Z,11.33
2023-02-19T02:51:52.260Z,11.34
2023-02-19T02:54:49.940Z,11.25
2023-02-19T02:57:19.356Z,11.29
2023-02-19T02:59:53.831Z,11.31
2023-02-19T03:02:31.028Z,11.24
2023-02-19T03:05:38.380Z,11.11
2023-02-19T03:09:03.685Z,11.13
2023-02-19T03:11:51.108Z,11.05
2023-02-19T03:14:44.922Z,11.06
2023-02-19T03:18:10.515Z,11.17
2023-02-19T03:20:41.915Z,11.18
2023-02-19T03:23:11.195Z,11.20
2023-02-19T03:25:58.636Z,11.15
2023-02-19T03:28:57.168Z,11.02
2023-02-19T03:31:27.107Z,10.87
2023-02-19T03:33:58.478Z,10.83
2023-02-19T03:36:33.568Z,11.00
2023-02-19T03:39:05.670Z,10.94
2023-02-19T03:41:43.135Z,10.95
2023-02-19T03:44:22.257Z,10.88
2023-02-19T03:46:55.151Z,10.79
2023-02-19T03:49:26.490Z,10.66
2023-02-19T03:52:34.408Z,10.55
2023-02-19T03:55:08.354Z,10.64
2023-02-19T03:57:51.087Z,10.66
2023-02-19T04:00:32.823Z,10.49
2023-02-19T04:03:11.674Z,10.54
2023-02-19T04:05:45.606Z,10.46
2023-02-19T04:08:17.928Z,10.54
2023-02-19T04:10:51.923Z,10.49
2023-02-19T04:13:35.105Z,10.43
2023-02-19T04:16:08.861Z,10.38
2023-02-19T04:18:41.343Z,10.32
2023-02-19T04:21:10.008Z,10.22
2023-02-19T04:23:43.383Z,10.36
2023-02-19T04:26:12.185Z,10.39
2023-02-19T04:28:39.914Z,10.39
2023-02-19T04:31:06.897Z,10.35
2023-02-19T04:33:33.761Z,10.37
2023-02-19T04:36:00.681Z,10.40
2023-02-19T04:38:27.446Z,10.41
2023-02-19T04:40:54.255Z,10.31
2023-02-19T04:43:21.327Z,10.16
2023-02-19T04:45:48.078Z,10.18
2023-02-19T04:48:14.986Z,10.07
2023-02-19T04:50:43.816Z,9.98
2023-02-19T04:53:10.640Z,10.04
2023-02-19T04:55:39.048Z,9.89
2023-02-19T04:58:05.903Z,9.84
2023-02-19T05:00:34.071Z,9.87
2023-02-19T05:03:01.581Z,10.01
2023-02-19T05:05:28.572Z,10.08
2023-02-19T05:07:55.349Z,10.12
2023-02-19T05:10:22.110Z,10.10
2023-02-19T05:12:48.900Z,10.22
2023-02-19T05:15:15.757Z,10.22
2023-02-19T05:17:42.527Z,10.07
2023-02-19T05:20:09.521Z,10.06
2023-02-19T05:22:36.277Z,10.00
2023-02-19T05:25:03.361Z,9.99
2023-02-19T05:27:31.172Z,9.93
2023-02-19T05:29:57.901Z,9.95
2023-02-19T05:32:24.770Z,9.97
2023-02-19T05:34:51.662Z,10.00
2023-02-19T05:37:18.434Z,9.91
2023-02-19T05:39:45.274Z,9.84
2023-02-19T05:42:14.256Z,9.81
2023-02-19T05:44:42.087Z,9.70
2023-02-19T05:47:08.881Z,9.58
2023-02-19T05:49:35.755Z,9.57
2023-02-19T05:52:02.799Z,9.54
2023-02-19T05:54:30.370Z,9.61
2023-02-19T05:56:57.186Z,9.60
2023-02-19T05:59:25.439Z,9.64
2023-02-19T06:01:54.844Z,9.63
2023-02-19T06:04:21.852Z,9.51
2023-02-19T06:06:49.025Z,9.53
2023-02-19T06:09:16.312Z,9.26
2023-02-19T06:11:43.696Z,9.38
2023-02-19T06:14:13.524Z,9.34
2023-02-19T06:16:40.789Z,9.27
2023-02-19T06:19:07.574Z,9.30
2023-02-19T06:21:34.784Z,9.28
2023-02-19T06:24:06.287Z,9.26
2023-02-19T06:26:33.308Z,9.07
2023-02-19T06:29:00.207Z,9.12
2023-02-19T06:31:27.162Z,9.11
2023-02-19T06:33:55.107Z,9.09
2023-02-19T06:36:23.079Z,9.09
2023-02-19T06:38:50.242Z,9.11
2023-02-19T06:41:17.412Z,8.86
2023-02-19T06:43:44.186Z,8.84
2023-02-19T06:46:12.332Z,8.91
2023-02-19T06:48:40.154Z,8.72
2023-02-19T06:51:07.319Z,8.75
2023-02-19T06:53:34.167Z,8.80
2023-02-19T06:56:04.728Z,8.87
2023-02-19T06:58:32.132Z,8.82
2023-02-19T07:00:58.964Z,8.73
2023-02-19T07:03:28.807Z,8.79
2023-02-19T07:05:55.641Z,8.81
2023-02-19T07:08:22.510Z,8.92
2023-02-19T07:10:57.241Z,9.09
2023-02-19T07:13:25.241Z,9.20
2023-02-19T07:15:52.742Z,9.01
2023-02-19T07:18:19.613Z,9.06
2023-02-19T07:20:46.338Z,9.26
2023-02-19T07:23:13.063Z,9.25
2023-02-19T07:25:40.186Z,9.38
2023-02-19T07:28:07.637Z,9.45
2023-02-19T07:30:34.967Z,9.69
2023-02-19T07:33:01.904Z,9.71
2023-02-19T07:35:28.831Z,9.84
2023-02-19T07:37:55.592Z,9.90
2023-02-19T07:40:22.359Z,10.01
2023-02-19T07:42:49.094Z,10.12
2023-02-19T07:45:16.921Z,10.14
2023-02-19T07:47:43.760Z,10.23
2023-02-19T07:50:13.756Z,10.34
2023-02-19T07:52:40.798Z,10.51
2023-02-19T07:55:07.674Z,10.60
2023-02-19T07:57:34.494Z,10.65
2023-02-19T08:00:01.459Z,10.78
2023-02-19T08:02:46.910Z,10.72
2023-02-19T08:05:14.090Z,10.77
2023-02-19T08:07:41.093Z,10.72
2023-02-19T08:10:26.804Z,10.56
2023-02-19T08:13:16.538Z,10.65
2023-02-19T08:15:43.902Z,10.51
2023-02-19T08:18:11.314Z,10.66
2023-02-19T08:20:38.706Z,10.94
2023-02-19T08:23:06.364Z,11.30
2023-02-19T08:25:33.465Z,11.53
2023-02-19T08:28:00.846Z,11.70
2023-02-19T08:30:29.548Z,11.77
2023-02-19T08:32:57.866Z,12.06
2023-02-19T08:35:24.703Z,12.23
2023-02-19T08:37:51.631Z,12.29
2023-02-19T08:40:18.526Z,12.26
2023-02-19T08:42:45.335Z,12.46
2023-02-19T08:45:12.322Z,12.55
2023-02-19T08:47:39.848Z,12.22
2023-02-19T08:50:07.930Z,12.42
2023-02-19T08:52:35.370Z,12.35
2023-02-19T08:55:04.214Z,12.44
2023-02-19T08:57:31.123Z,12.17
2023-02-19T08:59:58.172Z,12.25
2023-02-19T09:02:25.570Z,12.34
2023-02-19T09:04:52.360Z,12.40
2023-02-19T09:07:19.263Z,12.56
2023-02-19T09:09:45.951Z,12.66
2023-02-19T09:12:13.341Z,12.51
2023-02-19T09:14:40.357Z,12.62
2023-02-19T09:17:08.823Z,12.64
2023-02-19T09:19:35.945Z,12.67
2023-02-19T09:22:04.282Z,12.72
2023-02-19T09:24:31.564Z,12.86
2023-02-19T09:26:58.783Z,12.98
2023-02-19T09:29:27.351Z,13.25
2023-02-19T09:32:00.970Z,13.47
2023-02-19T09:34:29.236Z,13.66
2023-02-19T09:36:56.275Z,13.78
2023-02-19T09:39:23.034Z,13.80
2023-02-19T09:41:53.422Z,13.92
2023-02-19T09:44:34.783Z,14.14
2023-02-19T09:47:06.511Z,14.26
2023-02-19T09:49:34.611Z,14.51
2023-02-19T09:52:10.189Z,14.64
2023-02-19T09:54:38.511Z,14.77
2023-02-19T09:57:12.005Z,14.91
2023-02-19T09:59:45.230Z,15.05
2023-02-19T10:02:31.392Z,15.03
2023-02-19T10:04:59.002Z,15.15
2023-02-19T10:07:41.744Z,15.25
2023-02-19T10:10:14.412Z,15.31
2023-02-19T10:12:48.154Z,15.38
2023-02-19T10:15:29.137Z,15.44
2023-02-19T10:17:56.149Z,15.54
2023-02-19T10:20:26.704Z,15.68
2023-02-19T10:23:08.465Z,15.74
2023-02-19T10:25:35.789Z,15.79
2023-02-19T10:28:03.517Z,15.88
2023-02-19T10:30:33.476Z,15.96
2023-02-19T10:33:02.059Z,15.99
2023-02-19T10:35:30.533Z,16.15
2023-02-19T10:37:57.922Z,16.18
2023-02-19T10:40:29.265Z,16.33
2023-02-19T10:43:03.120Z,16.40
2023-02-19T10:45:50.383Z,16.51
2023-02-19T10:48:40.921Z,16.64
2023-02-19T10:51:13.251Z,16.69
2023-02-19T10:53:48.892Z,16.84
2023-02-19T10:56:28.888Z,16.94
2023-02-19T10:58:55.817Z,17.07
2023-02-19T11:01:27.004Z,17.18
2023-02-19T11:04:18.034Z,17.36
2023-02-19T11:06:46.853Z,17.39
2023-02-19T11:09:42.703Z,17.54
2023-02-19T11:12:10.772Z,17.53
2023-02-19T11:14:37.820Z,17.61
2023-02-19T11:17:05.703Z,17.65
2023-02-19T11:19:45.068Z,17.78
2023-02-19T11:22:41.911Z,17.95
2023-02-19T11:25:17.717Z,18.11
2023-02-19T11:27:54.241Z,18.16
2023-02-19T11:30:33.362Z,18.30
2023-02-19T11:33:17.391Z,18.44
2023-02-19T11:35:45.180Z,18.54
2023-02-19T11:38:14.343Z,18.59
2023-02-19T11:41:02.417Z,18.53
2023-02-19T11:43:40.727Z,18.53
2023-02-19T11:46:18.176Z,18.54
2023-02-19T11:49:22.570Z,18.58
2023-02-19T11:52:32.483Z,18.44
2023-02-19T11:55:22.107Z,18.32
2023-02-19T11:58:03.164Z,18.39
2023-02-19T12:00:31.388Z,18.43
2023-02-19T12:03:10.643Z,18.45
2023-02-19T12:05:47.993Z,18.49
2023-02-19T12:08:56.002Z,18.49
2023-02-19T12:11:55.559Z,18.53
2023-02-19T12:14:34.281Z,18.58
2023-02-19T12:17:37.438Z,18.65
2023-02-19T12:20:39.204Z,18.64
2023-02-19T12:23:33.958Z,18.56
2023-02-19T12:26:28.442Z,18.60
2023-02-19T12:29:07.303Z,18.70
2023-02-19T12:31:53.291Z,18.65
2023-02-19T12:34:55.488Z,18.66
2023-02-19T12:37:40.810Z,18.67
2023-02-19T12:40:25.991Z,18.71
2023-02-19T12:43:02.747Z,18.81
2023-02-19T12:45:54.644Z,18.87
2023-02-19T12:48:39.574Z,19.03
2023-02-19T12:51:27.838Z,19.13
2023-02-19T12:54:00.127Z,19.15
2023-02-19T12:56:34.666Z,19.11
2023-02-19T12:59:07.158Z,19.10
2023-02-19T13:01:43.949Z,19.11
2023-02-19T13:04:28.071Z,19.21
2023-02-19T13:07:07.155Z,19.26
2023-02-19T13:09:44.971Z,19.36
2023-02-19T13:12:14.097Z,19.44
2023-02-19T13:14:45.855Z,19.37
2023-02-19T13:17:19.896Z,19.36
2023-02-19T13:19:50.479Z,19.40
2023-02-19T13:23:03.885Z,19.36
2023-02-19T13:26:13.047Z,19.36
2023-02-19T13:28:51.728Z,19.39
2023-02-19T13:31:49.002Z,19.32
2023-02-19T13:34:53.177Z,19.22
2023-02-19T13:37:21.787Z,19.18
2023-02-19T13:39:54.588Z,19.20
2023-02-19T13:42:32.152Z,19.29
2023-02-19T13:44:59.712Z,19.35
2023-02-19T13:47:45.218Z,19.20
2023-02-19T13:50:22.548Z,19.15
2023-02-19T13:52:50.485Z,19.08
2023-02-19T13:55:52.212Z,19.13
2023-02-19T13:58:34.566Z,19.01
2023-02-19T14:01:10.065Z,18.91
2023-02-19T14:03:46.475Z,18.99
2023-02-19T14:06:14.150Z,18.99
2023-02-19T14:08:53.396Z,18.91
2023-02-19T14:11:42.934Z,18.76
2023-02-19T14:14:35.281Z,18.78
2023-02-19T14:17:05.600Z,18.77
2023-02-19T14:19:41.590Z,18.87
2023-02-19T14:23:05.726Z,18.94
2023-02-19T14:25:49.237Z,18.91
2023-02-19T14:28:41.590Z,18.98
2023-02-19T14:31:29.334Z,18.83
2023-02-19T14:34:00.481Z,18.92
2023-02-19T14:36:45.096Z,18.84
2023-02-19T14:39:22.801Z,18.78
2023-02-19T14:42:16.362Z,18.80
2023-02-19T14:44:52.361Z,18.73
2023-02-19T14:47:22.999Z,18.77
2023-02-19T14:49:55.171Z,18.78
2023-02-19T14:52:28.977Z,18.85
2023-02-19T14:55:00.714Z,18.89
2023-02-19T14:57:29.675Z,18.89
2023-02-19T15:00:00.162Z,18.90
2023-02-19T15:02:32.216Z,18.88
2023-02-19T15:04:58.926Z,18.92
2023-02-19T15:07:31.745Z,18.84
2023-02-19T15:10:04.991Z,18.91
2023-02-19T15:12:44.593Z,18.89
2023-02-19T15:15:20.756Z,18.96
2023-02-19T15:17:48.287Z,18.92
2023-02-19T15:20:20.799Z,18.94
2023-02-19T15:22:47.780Z,18.97
2023-02-19T15:25:20.423Z,18.97
2023-02-19T15:27:47.602Z,18.97
2023-02-19T15:30:29.542Z,19.00
2023-02-19T15:32:58.304Z,18.95
2023-02-19T15:35:27.348Z,18.98
2023-02-19T15:37:57.882Z,19.01
2023-02-19T15:40:31.120Z,19.03
2023-02-19T15:43:00.247Z,19.03
2023-02-19T15:45:37.728Z,19.10
2023-02-19T15:48:10.881Z,19.13
2023-02-19T15:50:44.129Z,19.10
2023-02-19T15:53:23.440Z,19.17
2023-02-19T15:56:02.154Z,19.18
2023-02-19T15:58:54.973Z,19.19
2023-02-19T16:01:25.922Z,19.22
2023-02-19T16:03:54.264Z,19.13
2023-02-19T16:06:22.904Z,19.17
2023-02-19T16:08:52.690Z,19.09
2023-02-19T16:11:22.563Z,19.11
2023-02-19T16:13:53.637Z,19.14
2023-02-19T16:16:27.576Z,19.07
2023-02-19T16:18:54.716Z,18.93
2023-02-19T16:21:24.637Z,18.96
2023-02-19T16:23:59.290Z,18.99
2023-02-19T16:26:26.351Z,18.93
2023-02-19T16:28:54.522Z,18.87
2023-02-19T16:31:23.436Z,18.85
2023-02-19T16:33:50.863Z,18.88
2023-02-19T16:36:46.020Z,18.85
2023-02-19T16:39:17.942Z,18.77
2023-02-19T16:41:47.651Z,18.69
2023-02-19T16:44:32.264Z,18.62
2023-02-19T16:47:38.167Z,18.54
2023-02-19T16:50:13.250Z,18.46
2023-02-19T16:52:58.331Z,18.45
2023-02-19T16:55:26.439Z,18.43
2023-02-19T16:57:53.286Z,18.40
2023-02-19T17:00:28.245Z,18.32
2023-02-19T17:03:03.076Z,18.26
2023-02-19T17:05:32.632Z,18.18
2023-02-19T17:08:00.434Z,18.13
2023-02-19T17:10:27.835Z,18.10
2023-02-19T17:12:56.929Z,18.02
2023-02-19T17:15:23.719Z,17.98
2023-02-19T17:17:50.569Z,17.93
2023-02-19T17:20:17.343Z,17.87
2023-02-19T17:22:44.574Z,17.84
2023-02-19T17:25:11.435Z,17.78
2023-02-19T17:27:38.360Z,17.73
2023-02-19T17:30:13.686Z,17.69
2023-02-19T17:32:40.523Z,17.62
2023-02-19T17:35:07.457Z,17.49
2023-02-19T17:37:34.226Z,17.40
2023-02-19T17:40:00.969Z,17.34
2023-02-19T17:42:27.747Z,17.28
2023-02-19T17:44:54.509Z,17.18
2023-02-19T17:47:21.746Z,17.11
2023-02-19T17:49:48.457Z,16.98
2023-02-19T17:52:17.726Z,16.94
2023-02-19T17:54:44.580Z,16.91
2023-02-19T17:57:11.320Z,16.88
2023-02-19T17:59:38.031Z,16.85
2023-02-19T18:02:04.823Z,16.83
2023-02-19T18:04:31.575Z,16.77
2023-02-19T18:06:58.401Z,16.77
2023-02-19T18:09:25.265Z,16.74
2023-02-19T18:11:52.061Z,16.74
2023-02-19T18:14:18.942Z,16.69
2023-02-19T18:16:50.452Z,16.69
2023-02-19T18:19:17.703Z,16.66
2023-02-19T18:21:44.480Z,16.65
2023-02-19T18:24:11.360Z,16.57
2023-02-19T18:26:38.123Z,16.52
2023-02-19T18:29:05.762Z,16.51
2023-02-19T18:31:33.742Z,16.48
2023-02-19T18:34:00.580Z,16.48
2023-02-19T18:36:27.322Z,16.48
2023-02-19T18:38:54.084Z,16.48
2023-02-19T18:41:21.375Z,16.46
2023-02-19T18:43:48.571Z,16.44
2023-02-19T18:46:15.627Z,16.43
2023-02-19T18:48:42.447Z,16.37
2023-02-19T18:51:11.244Z,16.37
2023-02-19T18:53:38.282Z,16.34
2023-02-19T18:56:05.516Z,16.33
2023-02-19T18:58:32.246Z,16.29
2023-02-19T19:00:59.520Z,16.23
2023-02-19T19:03:26.417Z,16.20
2023-02-19T19:05:53.303Z,16.16
2023-02-19T19:08:20.009Z,16.14
2023-02-19T19:10:46.739Z,16.15
2023-02-19T19:13:13.506Z,16.15
2023-02-19T19:15:41.467Z,16.13
2023-02-19T19:18:09.173Z,16.08
2023-02-19T19:20:35.927Z,16.00
2023-02-19T19:23:02.744Z,15.93
2023-02-19T19:25:29.508Z,15.85
2023-02-19T19:27:56.728Z,15.85
2023-02-19T19:30:23.969Z,15.82
2023-02-19T19:32:52.470Z,15.80
2023-02-19T19:35:20.375Z,15.78
2023-02-19T19:37:47.426Z,15.71
2023-02-19T19:40:17.299Z,15.66
2023-02-19T19:42:44.650Z,15.62
2023-02-19T19:45:12.075Z,15.58
2023-02-19T19:47:38.977Z,15.53
2023-02-19T19:50:06.211Z,15.48
2023-02-19T19:52:33.006Z,15.47
2023-02-19T19:54:59.740Z,15.45
2023-02-19T19:57:26.769Z,15.42
2023-02-19T19:59:53.660Z,15.39
2023-02-19T20:02:20.488Z,15.39
2023-02-19T20:04:47.275Z,15.35
2023-02-19T20:07:14.235Z,15.32
2023-02-19T20:09:41.047Z,15.16
2023-02-19T20:12:07.968Z,14.94
2023-02-19T20:14:34.898Z,14.92
2023-02-19T20:17:01.718Z,14.97
2023-02-19T20:19:28.465Z,15.01
2023-02-19T20:21:55.578Z,14.96
2023-02-19T20:24:25.995Z,14.95
2023-02-19T20:27:01.930Z,14.98
2023-02-19T20:29:31.217Z,14.95
2023-02-19T20:32:00.052Z,14.94
2023-02-19T20:34:27.435Z,14.78
2023-02-19T20:36:54.906Z,14.76
2023-02-19T20:39:22.636Z,14.76
2023-02-19T20:41:51.922Z,14.73
2023-02-19T20:44:19.467Z,14.66
2023-02-19T20:46:49.501Z,14.60
2023-02-19T20:49:18.874Z,14.61
2023-02-19T20:51:50.171Z,14.59
2023-02-19T20:54:18.336Z,14.49
2023-02-19T20:56:47.078Z,14.59
2023-02-19T20:59:15.698Z,14.61
2023-02-19T21:01:43.060Z,14.55
2023-02-19T21:04:09.950Z,14.45
2023-02-19T21:06:37.150Z,14.48
2023-02-19T21:09:04.899Z,14.56
2023-02-19T21:11:32.574Z,14.61
2023-02-19T21:13:59.626Z,14.63
2023-02-19T21:16:27.573Z,14.61
2023-02-19T21:18:54.392Z,14.57
2023-02-19T21:21:25.296Z,14.62
2023-02-19T21:23:53.251Z,14.57
2023-02-19T21:26:20.417Z,14.50
2023-02-19T21:28:47.314Z,14.55
2023-02-19T21:31:14.317Z,14.58
2023-02-19T21:33:41.141Z,14.45
2023-02-19T21:36:08.678Z,14.45
2023-02-19T21:38:35.604Z,14.30
2023-02-19T21:41:02.547Z,14.33
2023-02-19T21:43:29.558Z,14.29
2023-02-19T21:45:56.601Z,14.25
2023-02-19T21:48:23.480Z,14.21
2023-02-19T21:50:50.324Z,14.23
2023-02-19T21:53:17.093Z,14.19
2023-02-19T21:55:57.486Z,14.18
2023-02-19T21:58:24.796Z,14.12
2023-02-19T22:00:53.905Z,14.05
2023-02-19T22:03:20.810Z,13.93
2023-02-19T22:05:47.542Z,13.95
2023-02-19T22:08:15.730Z,13.98
2023-02-19T22:10:42.692Z,13.97
2023-02-19T22:13:10.427Z,13.87
2023-02-19T22:15:37.202Z,13.89
2023-02-19T22:18:07.706Z,13.82
2023-02-19T22:20:34.795Z,13.71
2023-02-19T22:23:01.728Z,13.65
2023-02-19T22:25:28.437Z,13.48
2023-02-19T22:27:55.199Z,13.52
2023-02-19T22:30:21.962Z,13.51
2023-02-19T22:32:48.775Z,13.57
2023-02-19T22:35:15.989Z,13.59
2023-02-19T22:37:42.792Z,13.61
2023-02-19T22:40:09.897Z,13.56
2023-02-19T22:42:38.087Z,13.43
2023-02-19T22:45:06.335Z,13.44
2023-02-19T22:47:33.115Z,13.20
2023-02-19T22:49:59.948Z,13.32
2023-02-19T22:52:28.171Z,13.37
2023-02-19T22:54:56.006Z,13.36
2023-02-19T22:57:22.828Z,13.34
2023-02-19T22:59:49.646Z,13.32
2023-02-19T23:02:16.546Z,13.26
2023-02-19T23:04:43.524Z,13.25
2023-02-19T23:07:10.378Z,13.06
2023-02-19T23:09:37.118Z,12.99
2023-02-19T23:12:09.642Z,12.82
2023-02-19T23:14:36.630Z,12.78
2023-02-19T23:17:03.662Z,12.78
2023-02-19T23:19:30.621Z,12.81
2023-02-19T23:21:57.778Z,12.78
2023-02-19T23:24:25.062Z,12.67
2023-02-19T23:26:53.148Z,12.64
2023-02-19T23:29:25.015Z,12.59
2023-02-19T23:31:52.105Z,12.51
2023-02-19T23:34:19.559Z,12.42
2023-02-19T23:36:48.697Z,12.39
2023-02-19T23:39:18.665Z,12.47
2023-02-19T23:41:47.534Z,12.53
2023-02-19T23:44:14.439Z,12.46
2023-02-19T23:46:41.276Z,12.35
2023-02-19T23:49:08.082Z,12.31
2023-02-19T23:51:35.018Z,12.20
2023-02-19T23:54:02.076Z,12.22
2023-02-19T23:56:29.945Z,12.25
2023-02-19T23:58:56.907Z,12.08
